createdAt,value
2023-02-18T00:01:02.608Z,101026.72
2023-02-18T00:05:04.168Z,101028.69
2023-02-18T00:09:06.379Z,101037.44
2023-02-18T00:13:08.079Z,101044.56
2023-02-18T00:17:09.602Z,101052.22
2023-02-18T00:21:11.232Z,101059.34
2023-02-18T00:25:12.714Z,101055.78
2023-02-18T00:29:14.422Z,101072.81
2023-02-18T00:33:15.943Z,101067.97
2023-02-18T00:37:17.406Z,101061.47
2023-02-18T00:41:20.484Z,101059.38
2023-02-18T00:45:22.025Z,101068.16
2023-02-18T00:49:23.512Z,101084.19
2023-02-18T00:53:25.069Z,101071.88
2023-02-18T00:57:26.753Z,101077.22
2023-02-18T01:01:28.468Z,101091.97
2023-02-18T01:05:30.010Z,101075.94
2023-02-18T01:09:31.483Z,101074.94
2023-02-18T01:13:33.232Z,101069.63
2023-02-18T01:17:34.822Z,101071.88
2023-02-18T01:21:36.393Z,101102.00
2023-02-18T01:25:38.569Z,101068.28
2023-02-18T01:29:40.226Z,101070.72
2023-02-18T01:33:42.278Z,101076.72
2023-02-18T01:37:43.839Z,101075.91
2023-02-18T01:41:45.302Z,101067.16
2023-02-18T01:45:51.511Z,101078.19
2023-02-18T01:49:53.812Z,101065.69
2023-02-18T01:54:24.858Z,101062.78
2023-02-18T01:58:26.412Z,101080.13
2023-02-18T02:02:33.092Z,101079.28
2023-02-18T02:06:34.631Z,101080.28
2023-02-18T02:10:50.658Z,101072.84
2023-02-18T02:15:01.114Z,101079.16
2023-02-18T02:19:28.161Z,101080.28
2023-02-18T02:23:38.719Z,101081.41
2023-02-18T02:27:59.076Z,101074.13
2023-02-18T02:32:19.063Z,101075.88
2023-02-18T02:36:28.226Z,101065.19
2023-02-18T02:40:44.020Z,101068.28
2023-02-18T02:45:01.695Z,101073.81
2023-02-18T02:49:32.979Z,101081.69
2023-02-18T02:53:36.298Z,101078.00
2023-02-18T02:57:46.700Z,101089.19
2023-02-18T03:01:51.137Z,101085.78
2023-02-18T03:06:14.243Z,101075.56
2023-02-18T03:10:18.738Z,101073.78
2023-02-18T03:14:29.896Z,101082.03
2023-02-18T03:18:39.560Z,101089.84
2023-02-18T03:22:46.752Z,101095.16
2023-02-18T03:26:52.556Z,101088.53
2023-02-18T03:30:58.768Z,101083.50
2023-02-18T03:35:13.152Z,101104.72
2023-02-18T03:39:16.739Z,101086.75
2023-02-18T03:43:18.593Z,101082.03
2023-02-18T03:47:20.338Z,101085.91
2023-02-18T03:51:22.337Z,101082.03
2023-02-18T03:55:23.863Z,101090.75
2023-02-18T03:59:25.286Z,101081.34
2023-02-18T04:03:26.796Z,101077.78
2023-02-18T04:07:28.306Z,101071.66
2023-02-18T04:11:30.019Z,101079.06
2023-02-18T04:15:31.734Z,101077.47
2023-02-18T04:19:33.190Z,101080.53
2023-02-18T04:23:34.676Z,101078.25
2023-02-18T04:27:36.088Z,101081.34
2023-02-18T04:31:37.842Z,101075.00
2023-02-18T04:35:42.041Z,101083.44
2023-02-18T04:39:43.580Z,101090.56
2023-02-18T04:43:45.020Z,101090.09
2023-02-18T04:47:46.451Z,101096.84
2023-02-18T04:51:47.849Z,101087.19
2023-02-18T04:55:52.824Z,101098.34
2023-02-18T04:59:54.236Z,101092.06
2023-02-18T05:03:55.735Z,101092.53
2023-02-18T05:07:57.257Z,101090.28
2023-02-18T05:11:58.695Z,101094.66
2023-02-18T05:16:00.625Z,101097.75
2023-02-18T05:20:02.584Z,101092.06
2023-02-18T05:24:04.328Z,101098.06
2023-02-18T05:28:05.758Z,101091.13
2023-02-18T05:32:07.280Z,101089.00
2023-02-18T05:36:09.152Z,101087.41
2023-02-18T05:40:12.024Z,101089.00
2023-02-18T05:44:31.745Z,101078.81
2023-02-18T05:48:33.134Z,101077.69
2023-02-18T05:52:34.597Z,101067.00
2023-02-18T05:56:36.198Z,101078.66
2023-02-18T06:00:37.654Z,101081.56
2023-02-18T06:04:40.510Z,101077.34
2023-02-18T06:08:41.928Z,101073.81
2023-02-18T06:12:43.438Z,101080.09
2023-02-18T06:16:44.875Z,101080.28
2023-02-18T06:20:49.888Z,101077.84
2023-02-18T06:24:51.319Z,101080.81
2023-02-18T06:28:53.003Z,101072.50
2023-02-18T06:32:54.729Z,101074.28
2023-02-18T06:36:56.436Z,101075.75
2023-02-18T06:40:57.863Z,101073.81
2023-02-18T06:44:59.384Z,101068.78
2023-02-18T06:49:00.949Z,101069.28
2023-02-18T06:53:02.447Z,101068.28
2023-02-18T06:57:04.004Z,101070.72
2023-02-18T07:01:05.610Z,101063.63
2023-02-18T07:05:07.185Z,101069.94
2023-02-18T07:09:08.965Z,101071.22
2023-02-18T07:13:10.540Z,101060.19
2023-02-18T07:17:11.984Z,101076.09
2023-02-18T07:21:13.605Z,101066.84
2023-02-18T07:25:15.449Z,101090.00
2023-02-18T07:29:16.941Z,101070.41
2023-02-18T07:33:18.453Z,101071.22
2023-02-18T07:37:21.069Z,101067.16
2023-02-18T07:41:23.616Z,101059.38
2023-02-18T07:45:25.675Z,101050.81
2023-02-18T07:49:27.596Z,101034.44
2023-02-18T07:53:29.028Z,101016.47
2023-02-18T07:57:30.446Z,101019.19
2023-02-18T08:01:31.940Z,101028.72
2023-02-18T08:05:33.411Z,101019.81
2023-02-18T08:09:34.940Z,101023.03
2023-02-18T08:13:36.418Z,101014.63
2023-02-18T08:17:37.810Z,101005.25
2023-02-18T08:21:39.353Z,100993.75
2023-02-18T08:25:41.008Z,100994.41
2023-02-18T08:29:42.430Z,100980.97
2023-02-18T08:33:43.893Z,100981.16
2023-02-18T08:37:52.255Z,100975.16
2023-02-18T08:41:57.346Z,100972.25
2023-02-18T08:45:59.364Z,100955.72
2023-02-18T08:50:01.316Z,100955.84
2023-02-18T08:54:03.089Z,100952.41
2023-02-18T08:58:06.630Z,100948.25
2023-02-18T09:02:08.168Z,100947.88
2023-02-18T09:06:09.673Z,100950.00
2023-02-18T09:10:11.571Z,100936.50
2023-02-18T09:14:13.757Z,100925.88
2023-02-18T09:18:15.199Z,100917.28
2023-02-18T09:22:16.673Z,100905.28
2023-02-18T09:26:23.341Z,100903.53
2023-02-18T09:30:24.975Z,100894.25
2023-02-18T09:34:26.403Z,100893.19
2023-02-18T09:38:28.009Z,100882.84
2023-02-18T09:42:34.101Z,100888.78
2023-02-18T09:47:16.015Z,100870.16
2023-02-18T09:51:18.774Z,100857.06
2023-02-18T09:55:29.108Z,100858.53
2023-02-18T09:59:30.931Z,100835.53
2023-02-18T10:03:32.458Z,100840.22
2023-02-18T10:07:36.106Z,100834.97
2023-02-18T10:11:42.689Z,100825.78
2023-02-18T10:15:46.366Z,100823.69
2023-02-18T10:19:49.648Z,100827.91
2023-02-18T10:24:29.254Z,100810.47
2023-02-18T10:28:31.786Z,100794.94
2023-02-18T10:32:38.058Z,100778.97
2023-02-18T10:36:47.878Z,100761.56
2023-02-18T10:40:59.962Z,100758.16
2023-02-18T10:45:13.101Z,100733.06
2023-02-18T10:49:41.720Z,100720.38
2023-02-18T10:53:45.435Z,100707.53
2023-02-18T10:57:55.138Z,100690.84
2023-02-18T11:02:03.686Z,100686.66
2023-02-18T11:06:15.015Z,100663.22
2023-02-18T11:10:22.674Z,100651.06
2023-02-18T11:14:38.355Z,100638.44
2023-02-18T11:18:42.421Z,100622.78
2023-02-18T11:22:44.204Z,100614.16
2023-02-18T11:26:46.870Z,100606.59
2023-02-18T11:30:54.101Z,100602.56
2023-02-18T11:34:55.852Z,100596.00
2023-02-18T11:39:07.559Z,100571.06
2023-02-18T11:43:16.335Z,100574.63
2023-02-18T11:47:20.383Z,100558.78
2023-02-18T11:51:26.619Z,100540.91
2023-02-18T11:55:31.034Z,100532.25
2023-02-18T11:59:36.913Z,100528.63
2023-02-18T12:04:05.989Z,100507.72
2023-02-18T12:08:17.744Z,100495.13
2023-02-18T12:12:28.276Z,100492.06
2023-02-18T12:16:43.037Z,100488.06
2023-02-18T12:20:59.542Z,100478.19
2023-02-18T12:25:23.840Z,100464.06
2023-02-18T12:30:09.052Z,100455.88
2023-02-18T12:35:08.472Z,100463.06
2023-02-18T12:39:25.460Z,100463.22
2023-02-18T12:43:35.558Z,100451.41
2023-02-18T12:48:11.597Z,100442.13
2023-02-18T12:52:27.797Z,100435.41
2023-02-18T12:56:54.195Z,100436.19
2023-02-18T13:01:01.786Z,100426.78
2023-02-18T13:05:21.888Z,100418.94
2023-02-18T13:09:32.412Z,100399.91
2023-02-18T13:13:44.904Z,100411.63
2023-02-18T13:17:49.795Z,100381.91
2023-02-18T13:21:54.752Z,100385.47
2023-02-18T13:26:06.574Z,100368.91
2023-02-18T13:30:11.005Z,100372.25
2023-02-18T13:34:32.066Z,100348.94
2023-02-18T13:39:09.217Z,100376.00
2023-02-18T13:43:19.196Z,100386.72
2023-02-18T13:47:38.780Z,100377.59
2023-02-18T13:51:46.289Z,100389.63
2023-02-18T13:55:56.477Z,100364.78
2023-02-18T14:00:01.928Z,100377.38
2023-02-18T14:04:04.288Z,100371.50
2023-02-18T14:08:30.976Z,100369.06
2023-02-18T14:12:52.060Z,100369.81
2023-02-18T14:17:30.288Z,100402.69
2023-02-18T14:21:36.324Z,100384.09
2023-02-18T14:25:41.708Z,100402.16
2023-02-18T14:29:43.274Z,100381.25
2023-02-18T14:34:11.056Z,100375.56
2023-02-18T14:38:40.373Z,100407.16
2023-02-18T14:43:03.218Z,100376.28
2023-02-18T14:47:37.186Z,100369.28
2023-02-18T14:51:42.009Z,100371.63
2023-02-18T14:55:47.166Z,100377.25
2023-02-18T14:59:48.669Z,100376.81
2023-02-18T15:03:52.617Z,100375.28
2023-02-18T15:08:08.749Z,100384.88
2023-02-18T15:12:10.362Z,100411.03
2023-02-18T15:16:20.510Z,100382.66
2023-02-18T15:20:23.407Z,100411.19
2023-02-18T15:24:27.157Z,100429.91
2023-02-18T15:28:31.333Z,100409.94
2023-02-18T15:32:33.183Z,100411.19
2023-02-18T15:36:34.642Z,100422.13
2023-02-18T15:40:38.381Z,100442.09
2023-02-18T15:44:47.345Z,100423.19
2023-02-18T15:48:51.269Z,100452.72
2023-02-18T15:52:55.372Z,100455.63
2023-02-18T15:57:02.356Z,100474.13
2023-02-18T16:01:07.595Z,100462.53
2023-02-18T16:05:13.632Z,100482.09
2023-02-18T16:09:24.200Z,100485.44
2023-02-18T16:13:26.925Z,100494.56
2023-02-18T16:17:29.891Z,100501.97
2023-02-18T16:21:38.039Z,100501.53
2023-02-18T16:25:43.908Z,100500.81
2023-02-18T16:29:45.369Z,100512.19
2023-02-18T16:33:49.027Z,100516.03
2023-02-18T16:37:51.221Z,100532.19
2023-02-18T16:41:52.674Z,100533.69
2023-02-18T16:45:57.880Z,100524.75
2023-02-18T16:49:59.937Z,100547.09
2023-02-18T16:54:01.908Z,100540.66
2023-02-18T16:58:03.537Z,100541.81
2023-02-18T17:02:05.156Z,100544.75
2023-02-18T17:06:06.739Z,100556.56
2023-02-18T17:10:08.668Z,100587.13
2023-02-18T17:14:14.525Z,100605.88
2023-02-18T17:18:16.051Z,100631.00
2023-02-18T17:22:17.510Z,100648.63
2023-02-18T17:26:27.868Z,100665.50
2023-02-18T17:30:31.898Z,100705.53
2023-02-18T17:34:35.835Z,100719.97
2023-02-18T17:38:37.605Z,100724.00
2023-02-18T17:42:39.059Z,100739.66
2023-02-18T17:46:40.592Z,100751.28
2023-02-18T17:50:42.707Z,100752.31
2023-02-18T17:54:44.143Z,100758.47
2023-02-18T17:58:46.457Z,100763.53
2023-02-18T18:02:48.412Z,100772.72
2023-02-18T18:06:50.000Z,100786.28
2023-02-18T18:10:54.867Z,100788.09
2023-02-18T18:14:56.293Z,100789.44
2023-02-18T18:18:57.885Z,100803.38
2023-02-18T18:23:01.818Z,100803.59
2023-02-18T18:27:03.506Z,100814.28
2023-02-18T18:31:05.015Z,100814.63
2023-02-18T18:35:26.785Z,100829.63
2023-02-18T18:39:28.240Z,100848.31
2023-02-18T18:43:33.278Z,100850.22
2023-02-18T18:47:35.248Z,100852.59
2023-02-18T18:51:36.817Z,100865.38
2023-02-18T18:55:40.640Z,100866.56
2023-02-18T18:59:42.126Z,100878.28
2023-02-18T19:03:45.329Z,100869.91
2023-02-18T19:07:48.236Z,100878.97
2023-02-18T19:11:49.721Z,100878.69
2023-02-18T19:16:01.654Z,100882.06
2023-02-18T19:20:03.327Z,100880.41
2023-02-18T19:24:15.769Z,100887.31
2023-02-18T19:28:18.883Z,100897.38
2023-02-18T19:32:21.378Z,100897.63
2023-02-18T19:36:22.811Z,100912.69
2023-02-18T19:40:26.596Z,100925.00
2023-02-18T19:44:34.470Z,100918.69
2023-02-18T19:48:36.022Z,100928.78
2023-02-18T19:52:37.596Z,100935.63
2023-02-18T19:56:39.118Z,100931.72
2023-02-18T20:00:40.661Z,100934.63
2023-02-18T20:04:42.778Z,100928.44
2023-02-18T20:08:45.155Z,100933.53
2023-02-18T20:12:52.083Z,100935.94
2023-02-18T20:16:54.256Z,100940.25
2023-02-18T20:20:55.843Z,100942.00
2023-02-18T20:24:57.346Z,100944.88
2023-02-18T20:28:58.916Z,100951.03
2023-02-18T20:33:00.366Z,100949.22
2023-02-18T20:37:01.973Z,100946.53
2023-02-18T20:41:12.332Z,100944.16
2023-02-18T20:45:14.085Z,100944.88
2023-02-18T20:49:18.206Z,100949.44
2023-02-18T20:53:19.770Z,100961.75
2023-02-18T20:57:21.341Z,100972.78
2023-02-18T21:01:22.861Z,100973.94
2023-02-18T21:05:24.460Z,100978.63
2023-02-18T21:09:26.068Z,100973.78
2023-02-18T21:13:27.600Z,100965.53
2023-02-18T21:17:29.079Z,100968.94
2023-02-18T21:21:30.687Z,100978.81
2023-02-18T21:25:33.003Z,100982.88
2023-02-18T21:29:34.633Z,100986.31
2023-02-18T21:33:36.040Z,100986.78
2023-02-18T21:37:37.646Z,100985.81
2023-02-18T21:41:41.225Z,100994.28
2023-02-18T21:45:42.966Z,100998.13
2023-02-18T21:49:44.467Z,100997.03
2023-02-18T21:53:45.988Z,100988.09
2023-02-18T21:57:47.416Z,100977.88
2023-02-18T22:01:49.247Z,100986.47
2023-02-18T22:05:50.716Z,100991.50
2023-02-18T22:09:53.764Z,100996.84
2023-02-18T22:13:55.258Z,100992.00
2023-02-18T22:17:56.746Z,100998.97
2023-02-18T22:21:58.524Z,101006.88
2023-02-18T22:26:05.186Z,101011.25
2023-02-18T22:30:07.152Z,101007.38
2023-02-18T22:34:09.307Z,101014.00
2023-02-18T22:38:10.760Z,101009.50
2023-02-18T22:42:12.186Z,101017.09
2023-02-18T22:46:16.157Z,101016.13
2023-02-18T22:50:17.710Z,101009.16
2023-02-18T22:54:20.007Z,101003.66
2023-02-18T22:58:21.515Z,101008.34
2023-02-18T23:02:24.964Z,101001.72
2023-02-18T23:06:26.423Z,101002.53
2023-02-18T23:10:27.884Z,101008.84
2023-02-18T23:14:30.414Z,101002.03
2023-02-18T23:18:33.874Z,101001.56
2023-02-18T23:22:35.551Z,100993.78
2023-02-18T23:26:36.980Z,100993.75
2023-02-18T23:30:38.510Z,101001.06
2023-02-18T23:34:40.211Z,101002.16
2023-02-18T23:38:41.939Z,100996.03
2023-02-18T23:42:43.368Z,100995.06
2023-02-18T23:46:45.024Z,100992.81
2023-02-18T23:50:46.445Z,100983.72
2023-02-18T23:54:47.895Z,100984.22
2023-02-18T23:58:52.392Z,100992.13
